Time,TemperatureF,DewpointF,PressureIn,WindDirection,WindDirectionDegrees,WindSpeedMPH,WindSpeedGustMPH,Humidity,HourlyPrecipIn,Conditions,Clouds,dailyrainin,SoftwareType,DateUTC
2013-10-08 18:12:00,51.0,41.0,30.15,SW,236,0.0,0.0,68,0.00,,,0.00,,2013-10-08 22:12:00,
2013-10-08 18:13:00,54.0,39.0,30.12,SW,227,0.0,2.0,57,0.00,,,0.00,,2013-10-08 22:13:00,
2013-10-08 18:24:00,54.0,39.0,30.12,SW,227,0.0,2.0,57,0.00,,,0.00,,2013-10-08 22:24:00,
2013-10-08 18:47:00,51.0,41.0,30.15,SW,236,0.0,0.0,68,0.00,,,0.00,,2013-10-08 22:47:00,
2013-10-08 18:59:00,51.0,41.0,30.15,SW,236,0.0,0.0,68,0.00,,,0.00,,2013-10-08 22:59:00,
2013-10-08 20:22:00,44.0,39.0,30.18,SW,230,1.0,2.0,81,0.00,,,0.00,,2013-10-09 00:22:00,
2013-10-08 20:43:00,44.0,39.0,30.18,SW,230,0.0,0.0,81,0.00,,,0.00,,2013-10-09 00:43:00,
2013-10-08 20:52:00,43.0,38.0,30.19,SW,232,0.0,3.0,81,0.00,,,0.00,,2013-10-09 00:52:00,
2013-10-08 21:02:00,43.0,38.0,30.19,SW,232,0.0,3.0,81,0.00,,,0.00,,2013-10-09 01:02:00,
2013-10-08 21:11:00,42.0,39.0,30.20,SW,232,0.0,0.0,88,0.00,,,0.00,,2013-10-09 01:11:00,
2013-10-08 21:12:00,43.0,38.0,30.19,SW,232,0.0,3.0,81,0.00,,,0.00,,2013-10-09 01:12:00,
2013-10-08 21:22:00,43.0,38.0,30.19,SW,232,0.0,3.0,81,0.00,,,0.00,,2013-10-09 01:22:00,
2013-10-08 21:43:00,42.0,39.0,30.20,SW,232,0.0,0.0,88,0.00,,,0.00,,2013-10-09 01:43:00,
2013-10-08 21:52:00,42.0,39.0,30.20,SW,232,0.0,0.0,88,0.00,,,0.00,,2013-10-09 01:52:00,
2013-10-08 22:03:00,42.0,39.0,30.20,SW,232,0.0,0.0,88,0.00,,,0.00,,2013-10-09 02:03:00,
2013-10-08 22:52:00,40.0,37.0,30.24,WSW,243,0.0,0.0,89,0.00,,,0.00,,2013-10-09 02:52:00,
2013-10-08 23:11:00,40.0,37.0,30.24,WSW,243,0.0,0.0,89,0.00,,,0.00,,2013-10-09 03:11:00,
2013-10-08 23:23:00,40.0,37.0,30.24,WSW,243,0.0,0.0,89,0.00,,,0.00,,2013-10-09 03:23:00,
2013-10-08 23:45:00,39.0,36.0,30.25,WSW,241,0.0,3.0,90,0.00,,,0.00,,2013-10-09 03:45:00,
2013-10-08 23:54:00,39.0,36.0,30.25,WSW,241,0.0,3.0,90,0.00,,,0.00,,2013-10-09 03:54:00,